sensor_id;sensor_type;location;lat;lon;timestamp;P1;durP1;ratioP1;P2;durP2;ratioP2
21848;SDS011;11089;49.852;19.700;2024-03-25T00:00:03;7.07;;;3.70;;
21848;SDS011;11089;49.852;19.700;2024-03-25T00:03:04;8.43;;;4.10;;
21848;SDS011;11089;49.852;19.700;2024-03-25T00:06:05;9.02;;;3.78;;
21848;SDS011;11089;49.852;19.700;2024-03-25T00:09:06;7.68;;;3.60;;
21848;SDS011;11089;49.852;19.700;2024-03-25T00:12:13;6.80;;;3.50;;
21848;SDS011;11089;49.852;19.700;2024-03-25T00:15:14;5.85;;;3.42;;
21848;SDS011;11089;49.852;19.700;2024-03-25T00:18:15;6.88;;;3.25;;
21848;SDS011;11089;49.852;19.700;2024-03-25T00:21:16;7.50;;;3.42;;
21848;SDS011;11089;49.852;19.700;2024-03-25T00:24:17;7.68;;;3.42;;
21848;SDS011;11089;49.852;19.700;2024-03-25T00:27:18;7.22;;;4.10;;
21848;SDS011;11089;49.852;19.700;2024-03-25T00:30:19;5.82;;;3.20;;
21848;SDS011;11089;49.852;19.700;2024-03-25T00:33:20;6.25;;;3.13;;
21848;SDS011;11089;49.852;19.700;2024-03-25T00:36:22;8.30;;;3.80;;
21848;SDS011;11089;49.852;19.700;2024-03-25T00:39:23;5.38;;;3.17;;
21848;SDS011;11089;49.852;19.700;2024-03-25T00:42:23;6.97;;;3.55;;
21848;SDS011;11089;49.852;19.700;2024-03-25T00:45:24;5.65;;;3.25;;
21848;SDS011;11089;49.852;19.700;2024-03-25T00:48:30;6.25;;;3.30;;
21848;SDS011;11089;49.852;19.700;2024-03-25T00:51:32;5.50;;;3.45;;
21848;SDS011;11089;49.852;19.700;2024-03-25T00:54:33;4.93;;;2.88;;
21848;SDS011;11089;49.852;19.700;2024-03-25T00:57:34;4.78;;;3.20;;
21848;SDS011;11089;49.852;19.700;2024-03-25T01:00:35;5.40;;;2.92;;
21848;SDS011;11089;49.852;19.700;2024-03-25T01:03:36;3.78;;;2.72;;
21848;SDS011;11089;49.852;19.700;2024-03-25T01:06:36;4.63;;;3.00;;
21848;SDS011;11089;49.852;19.700;2024-03-25T01:09:37;6.85;;;3.35;;
21848;SDS011;11089;49.852;19.700;2024-03-25T01:12:38;4.55;;;2.92;;
21848;SDS011;11089;49.852;19.700;2024-03-25T01:15:39;5.43;;;3.15;;
21848;SDS011;11089;49.852;19.700;2024-03-25T01:18:40;4.20;;;2.90;;
21848;SDS011;11089;49.852;19.700;2024-03-25T01:21:41;5.60;;;3.28;;
21848;SDS011;11089;49.852;19.700;2024-03-25T01:24:42;5.50;;;2.97;;
21848;SDS011;11089;49.852;19.700;2024-03-25T01:27:43;5.65;;;2.88;;
21848;SDS011;11089;49.852;19.700;2024-03-25T01:30:44;7.13;;;2.90;;
21848;SDS011;11089;49.852;19.700;2024-03-25T01:33:45;5.05;;;3.13;;
21848;SDS011;11089;49.852;19.700;2024-03-25T01:36:46;4.47;;;2.70;;
21848;SDS011;11089;49.852;19.700;2024-03-25T01:39:46;4.63;;;2.85;;
21848;SDS011;11089;49.852;19.700;2024-03-25T01:46:03;4.72;;;3.45;;
21848;SDS011;11089;49.852;19.700;2024-03-25T01:49:05;4.63;;;2.80;;
21848;SDS011;11089;49.852;19.700;2024-03-25T01:52:07;4.15;;;2.75;;
21848;SDS011;11089;49.852;19.700;2024-03-25T01:55:08;4.28;;;2.80;;
21848;SDS011;11089;49.852;19.700;2024-03-25T01:58:16;4.93;;;2.72;;
21848;SDS011;11089;49.852;19.700;2024-03-25T02:01:17;4.43;;;2.55;;
21848;SDS011;11089;49.852;19.700;2024-03-25T02:04:20;7.00;;;2.80;;
21848;SDS011;11089;49.852;19.700;2024-03-25T02:07:21;4.18;;;2.45;;
21848;SDS011;11089;49.852;19.700;2024-03-25T02:10:24;4.60;;;2.60;;
21848;SDS011;11089;49.852;19.700;2024-03-25T02:13:25;3.17;;;2.15;;
21848;SDS011;11089;49.852;19.700;2024-03-25T02:16:26;3.42;;;2.20;;
21848;SDS011;11089;49.852;19.700;2024-03-25T02:19:27;3.83;;;2.50;;
21848;SDS011;11089;49.852;19.700;2024-03-25T02:22:30;3.80;;;2.63;;
21848;SDS011;11089;49.852;19.700;2024-03-25T02:25:31;5.43;;;2.47;;
21848;SDS011;11089;49.852;19.700;2024-03-25T02:28:34;4.10;;;2.78;;
21848;SDS011;11089;49.852;19.700;2024-03-25T02:31:34;4.00;;;2.42;;
21848;SDS011;11089;49.852;19.700;2024-03-25T02:34:45;3.78;;;2.38;;
21848;SDS011;11089;49.852;19.700;2024-03-25T02:37:52;3.42;;;2.63;;
21848;SDS011;11089;49.852;19.700;2024-03-25T02:40:53;4.13;;;2.30;;
21848;SDS011;11089;49.852;19.700;2024-03-25T02:43:55;4.72;;;2.40;;
21848;SDS011;11089;49.852;19.700;2024-03-25T02:46:56;3.45;;;2.38;;
21848;SDS011;11089;49.852;19.700;2024-03-25T02:49:57;2.88;;;2.15;;
21848;SDS011;11089;49.852;19.700;2024-03-25T02:52:58;4.93;;;2.40;;
21848;SDS011;11089;49.852;19.700;2024-03-25T02:55:59;4.15;;;2.40;;
21848;SDS011;11089;49.852;19.700;2024-03-25T02:59:00;4.15;;;2.45;;
21848;SDS011;11089;49.852;19.700;2024-03-25T03:02:02;3.72;;;2.92;;
21848;SDS011;11089;49.852;19.700;2024-03-25T03:05:03;3.88;;;2.15;;
21848;SDS011;11089;49.852;19.700;2024-03-25T03:08:04;3.35;;;2.50;;
21848;SDS011;11089;49.852;19.700;2024-03-25T03:11:05;3.25;;;2.30;;
21848;SDS011;11089;49.852;19.700;2024-03-25T03:14:06;4.75;;;2.60;;
21848;SDS011;11089;49.852;19.700;2024-03-25T03:17:07;4.10;;;2.63;;
21848;SDS011;11089;49.852;19.700;2024-03-25T03:20:08;4.20;;;2.30;;
21848;SDS011;11089;49.852;19.700;2024-03-25T03:23:10;3.95;;;2.65;;
21848;SDS011;11089;49.852;19.700;2024-03-25T03:26:11;4.22;;;2.80;;
21848;SDS011;11089;49.852;19.700;2024-03-25T03:29:12;5.95;;;2.42;;
21848;SDS011;11089;49.852;19.700;2024-03-25T03:32:13;3.38;;;2.38;;
21848;SDS011;11089;49.852;19.700;2024-03-25T03:35:14;4.63;;;2.33;;
21848;SDS011;11089;49.852;19.700;2024-03-25T03:38:15;3.40;;;2.45;;
21848;SDS011;11089;49.852;19.700;2024-03-25T03:41:16;2.83;;;2.20;;
21848;SDS011;11089;49.852;19.700;2024-03-25T03:44:18;2.55;;;1.83;;
21848;SDS011;11089;49.852;19.700;2024-03-25T03:47:19;4.07;;;1.98;;
21848;SDS011;11089;49.852;19.700;2024-03-25T03:50:20;3.72;;;2.13;;
21848;SDS011;11089;49.852;19.700;2024-03-25T03:53:21;3.15;;;2.13;;
21848;SDS011;11089;49.852;19.700;2024-03-25T03:56:22;4.35;;;2.00;;
21848;SDS011;11089;49.852;19.700;2024-03-25T03:59:23;4.28;;;2.42;;
21848;SDS011;11089;49.852;19.700;2024-03-25T04:02:25;3.25;;;2.20;;
21848;SDS011;11089;49.852;19.700;2024-03-25T04:05:29;4.28;;;2.17;;
21848;SDS011;11089;49.852;19.700;2024-03-25T04:08:30;3.88;;;2.03;;
21848;SDS011;11089;49.852;19.700;2024-03-25T04:11:31;2.40;;;1.88;;
21848;SDS011;11089;49.852;19.700;2024-03-25T04:14:35;4.65;;;2.03;;
21848;SDS011;11089;49.852;19.700;2024-03-25T04:17:36;5.22;;;2.28;;
21848;SDS011;11089;49.852;19.700;2024-03-25T04:20:41;4.00;;;2.00;;
21848;SDS011;11089;49.852;19.700;2024-03-25T04:23:42;4.25;;;2.30;;
21848;SDS011;11089;49.852;19.700;2024-03-25T04:26:45;4.10;;;2.40;;
21848;SDS011;11089;49.852;19.700;2024-03-25T04:29:46;5.25;;;2.22;;
21848;SDS011;11089;49.852;19.700;2024-03-25T04:32:47;3.47;;;2.30;;
21848;SDS011;11089;49.852;19.700;2024-03-25T04:35:48;3.67;;;2.22;;
21848;SDS011;11089;49.852;19.700;2024-03-25T04:38:50;4.10;;;2.20;;
21848;SDS011;11089;49.852;19.700;2024-03-25T04:41:51;5.47;;;2.20;;
21848;SDS011;11089;49.852;19.700;2024-03-25T04:44:52;6.55;;;2.80;;
21848;SDS011;11089;49.852;19.700;2024-03-25T04:47:54;4.40;;;2.53;;
21848;SDS011;11089;49.852;19.700;2024-03-25T04:50:55;3.22;;;2.00;;
21848;SDS011;11089;49.852;19.700;2024-03-25T04:53:56;3.50;;;1.98;;
21848;SDS011;11089;49.852;19.700;2024-03-25T04:56:57;3.50;;;2.03;;
21848;SDS011;11089;49.852;19.700;2024-03-25T04:59:58;3.38;;;2.13;;
21848;SDS011;11089;49.852;19.700;2024-03-25T05:02:59;3.97;;;2.15;;
21848;SDS011;11089;49.852;19.700;2024-03-25T05:06:00;4.05;;;2.45;;
21848;SDS011;11089;49.852;19.700;2024-03-25T05:09:01;5.22;;;2.75;;
21848;SDS011;11089;49.852;19.700;2024-03-25T05:12:02;6.18;;;2.55;;
21848;SDS011;11089;49.852;19.700;2024-03-25T05:15:03;3.95;;;2.50;;
21848;SDS011;11089;49.852;19.700;2024-03-25T05:18:06;4.43;;;2.60;;
21848;SDS011;11089;49.852;19.700;2024-03-25T05:21:07;4.65;;;2.65;;
21848;SDS011;11089;49.852;19.700;2024-03-25T05:24:07;5.18;;;2.30;;
21848;SDS011;11089;49.852;19.700;2024-03-25T05:27:08;2.88;;;2.10;;
21848;SDS011;11089;49.852;19.700;2024-03-25T05:30:09;4.28;;;2.45;;
21848;SDS011;11089;49.852;19.700;2024-03-25T05:33:11;4.05;;;2.13;;
21848;SDS011;11089;49.852;19.700;2024-03-25T05:36:12;4.05;;;2.40;;
21848;SDS011;11089;49.852;19.700;2024-03-25T05:39:13;5.30;;;2.30;;
21848;SDS011;11089;49.852;19.700;2024-03-25T05:42:14;3.28;;;2.03;;
21848;SDS011;11089;49.852;19.700;2024-03-25T05:45:15;4.57;;;1.75;;
21848;SDS011;11089;49.852;19.700;2024-03-25T05:48:16;3.20;;;1.90;;
21848;SDS011;11089;49.852;19.700;2024-03-25T05:51:17;3.33;;;2.30;;
21848;SDS011;11089;49.852;19.700;2024-03-25T05:54:19;5.20;;;2.67;;
21848;SDS011;11089;49.852;19.700;2024-03-25T05:57:20;5.60;;;2.97;;
21848;SDS011;11089;49.852;19.700;2024-03-25T06:00:21;5.95;;;2.90;;
21848;SDS011;11089;49.852;19.700;2024-03-25T06:03:22;4.55;;;2.63;;
21848;SDS011;11089;49.852;19.700;2024-03-25T06:06:23;5.80;;;2.58;;
21848;SDS011;11089;49.852;19.700;2024-03-25T06:09:24;5.28;;;2.20;;
21848;SDS011;11089;49.852;19.700;2024-03-25T06:12:25;3.95;;;2.67;;
21848;SDS011;11089;49.852;19.700;2024-03-25T06:15:26;4.20;;;2.38;;
21848;SDS011;11089;49.852;19.700;2024-03-25T06:18:27;7.43;;;2.97;;
21848;SDS011;11089;49.852;19.700;2024-03-25T06:21:27;3.45;;;2.30;;
21848;SDS011;11089;49.852;19.700;2024-03-25T06:24:29;3.95;;;2.50;;
21848;SDS011;11089;49.852;19.700;2024-03-25T06:27:30;9.20;;;3.90;;
21848;SDS011;11089;49.852;19.700;2024-03-25T06:30:31;9.05;;;4.60;;
21848;SDS011;11089;49.852;19.700;2024-03-25T06:33:46;8.75;;;4.60;;
21848;SDS011;11089;49.852;19.700;2024-03-25T06:37:01;6.43;;;3.53;;
21848;SDS011;11089;49.852;19.700;2024-03-25T06:40:02;7.45;;;3.83;;
21848;SDS011;11089;49.852;19.700;2024-03-25T06:43:04;8.77;;;4.60;;
21848;SDS011;11089;49.852;19.700;2024-03-25T06:46:06;10.38;;;4.57;;
21848;SDS011;11089;49.852;19.700;2024-03-25T06:49:07;7.47;;;3.63;;
21848;SDS011;11089;49.852;19.700;2024-03-25T06:52:08;4.72;;;2.80;;
21848;SDS011;11089;49.852;19.700;2024-03-25T06:55:09;4.03;;;2.22;;
21848;SDS011;11089;49.852;19.700;2024-03-25T06:58:10;4.32;;;2.30;;
21848;SDS011;11089;49.852;19.700;2024-03-25T07:01:11;5.05;;;2.20;;
21848;SDS011;11089;49.852;19.700;2024-03-25T07:04:12;4.45;;;2.20;;
21848;SDS011;11089;49.852;19.700;2024-03-25T07:07:13;2.72;;;1.73;;
21848;SDS011;11089;49.852;19.700;2024-03-25T07:10:14;4.38;;;2.53;;
21848;SDS011;11089;49.852;19.700;2024-03-25T07:13:14;4.18;;;2.17;;
21848;SDS011;11089;49.852;19.700;2024-03-25T07:16:15;3.10;;;1.90;;
21848;SDS011;11089;49.852;19.700;2024-03-25T07:19:16;4.07;;;2.00;;
21848;SDS011;11089;49.852;19.700;2024-03-25T07:22:17;3.88;;;2.00;;
21848;SDS011;11089;49.852;19.700;2024-03-25T07:25:18;16.92;;;5.05;;
21848;SDS011;11089;49.852;19.700;2024-03-25T07:28:19;6.47;;;2.50;;
21848;SDS011;11089;49.852;19.700;2024-03-25T07:31:20;3.75;;;2.08;;
21848;SDS011;11089;49.852;19.700;2024-03-25T07:34:21;3.00;;;1.90;;
21848;SDS011;11089;49.852;19.700;2024-03-25T07:37:21;3.05;;;1.75;;
21848;SDS011;11089;49.852;19.700;2024-03-25T07:40:22;3.33;;;1.88;;
21848;SDS011;11089;49.852;19.700;2024-03-25T07:43:23;3.67;;;1.58;;
21848;SDS011;11089;49.852;19.700;2024-03-25T07:46:24;2.60;;;1.40;;
21848;SDS011;11089;49.852;19.700;2024-03-25T07:49:25;1.92;;;1.58;;
21848;SDS011;11089;49.852;19.700;2024-03-25T07:52:26;2.75;;;1.70;;
21848;SDS011;11089;49.852;19.700;2024-03-25T07:55:27;2.22;;;1.45;;
21848;SDS011;11089;49.852;19.700;2024-03-25T07:58:28;3.80;;;2.10;;
21848;SDS011;11089;49.852;19.700;2024-03-25T08:01:29;5.72;;;3.00;;
21848;SDS011;11089;49.852;19.700;2024-03-25T08:04:30;2.60;;;1.60;;
21848;SDS011;11089;49.852;19.700;2024-03-25T08:07:31;6.18;;;4.40;;
21848;SDS011;11089;49.852;19.700;2024-03-25T08:10:32;3.42;;;2.33;;
21848;SDS011;11089;49.852;19.700;2024-03-25T08:13:33;3.13;;;2.20;;
21848;SDS011;11089;49.852;19.700;2024-03-25T08:16:34;3.17;;;2.28;;
21848;SDS011;11089;49.852;19.700;2024-03-25T08:19:35;3.00;;;1.80;;
21848;SDS011;11089;49.852;19.700;2024-03-25T08:22:36;5.65;;;2.67;;
21848;SDS011;11089;49.852;19.700;2024-03-25T08:25:37;3.60;;;2.13;;
21848;SDS011;11089;49.852;19.700;2024-03-25T08:28:38;2.88;;;1.85;;
21848;SDS011;11089;49.852;19.700;2024-03-25T08:31:39;3.65;;;1.90;;
21848;SDS011;11089;49.852;19.700;2024-03-25T08:34:40;2.78;;;1.77;;
21848;SDS011;11089;49.852;19.700;2024-03-25T08:37:41;3.88;;;2.10;;
21848;SDS011;11089;49.852;19.700;2024-03-25T08:40:42;6.55;;;2.75;;
21848;SDS011;11089;49.852;19.700;2024-03-25T08:43:43;3.35;;;2.08;;
21848;SDS011;11089;49.852;19.700;2024-03-25T08:46:44;3.65;;;2.03;;
21848;SDS011;11089;49.852;19.700;2024-03-25T08:49:45;3.35;;;1.95;;
21848;SDS011;11089;49.852;19.700;2024-03-25T08:52:46;2.45;;;1.92;;
21848;SDS011;11089;49.852;19.700;2024-03-25T08:55:47;5.32;;;3.70;;
21848;SDS011;11089;49.852;19.700;2024-03-25T08:58:48;2.58;;;2.25;;
21848;SDS011;11089;49.852;19.700;2024-03-25T09:01:49;2.45;;;1.60;;
21848;SDS011;11089;49.852;19.700;2024-03-25T09:04:50;2.17;;;1.50;;
21848;SDS011;11089;49.852;19.700;2024-03-25T09:07:52;4.45;;;3.10;;
21848;SDS011;11089;49.852;19.700;2024-03-25T09:10:53;9.82;;;4.93;;
21848;SDS011;11089;49.852;19.700;2024-03-25T09:14:03;13.30;;;6.78;;
21848;SDS011;11089;49.852;19.700;2024-03-25T09:17:06;12.90;;;5.35;;
21848;SDS011;11089;49.852;19.700;2024-03-25T09:20:07;24.90;;;9.27;;
21848;SDS011;11089;49.852;19.700;2024-03-25T09:23:17;22.83;;;8.13;;
21848;SDS011;11089;49.852;19.700;2024-03-25T09:26:18;8.25;;;4.10;;
21848;SDS011;11089;49.852;19.700;2024-03-25T09:29:19;9.35;;;5.07;;
21848;SDS011;11089;49.852;19.700;2024-03-25T09:32:20;6.43;;;3.50;;
21848;SDS011;11089;49.852;19.700;2024-03-25T09:35:20;8.60;;;3.40;;
21848;SDS011;11089;49.852;19.700;2024-03-25T09:38:21;5.00;;;3.25;;
21848;SDS011;11089;49.852;19.700;2024-03-25T09:41:22;5.43;;;2.40;;
21848;SDS011;11089;49.852;19.700;2024-03-25T09:44:24;26.58;;;8.07;;
21848;SDS011;11089;49.852;19.700;2024-03-25T09:47:26;14.52;;;7.13;;
21848;SDS011;11089;49.852;19.700;2024-03-25T09:50:27;8.02;;;3.70;;
21848;SDS011;11089;49.852;19.700;2024-03-25T09:53:28;5.72;;;3.05;;
21848;SDS011;11089;49.852;19.700;2024-03-25T09:56:29;7.65;;;3.85;;
21848;SDS011;11089;49.852;19.700;2024-03-25T09:59:31;5.43;;;2.50;;
21848;SDS011;11089;49.852;19.700;2024-03-25T10:02:32;4.88;;;2.78;;
21848;SDS011;11089;49.852;19.700;2024-03-25T10:05:34;5.55;;;3.28;;
21848;SDS011;11089;49.852;19.700;2024-03-25T10:08:35;4.15;;;2.65;;
21848;SDS011;11089;49.852;19.700;2024-03-25T10:11:37;3.78;;;2.45;;
21848;SDS011;11089;49.852;19.700;2024-03-25T10:14:41;4.40;;;2.53;;
21848;SDS011;11089;49.852;19.700;2024-03-25T10:17:43;2.30;;;2.03;;
21848;SDS011;11089;49.852;19.700;2024-03-25T10:20:48;3.10;;;2.05;;
21848;SDS011;11089;49.852;19.700;2024-03-25T10:23:53;1.48;;;1.38;;
21848;SDS011;11089;49.852;19.700;2024-03-25T10:26:55;1.77;;;1.45;;
21848;SDS011;11089;49.852;19.700;2024-03-25T10:29:59;3.22;;;2.42;;
21848;SDS011;11089;49.852;19.700;2024-03-25T10:33:04;2.53;;;1.90;;
21848;SDS011;11089;49.852;19.700;2024-03-25T10:36:06;11.48;;;4.53;;
21848;SDS011;11089;49.852;19.700;2024-03-25T10:39:09;7.32;;;3.60;;
21848;SDS011;11089;49.852;19.700;2024-03-25T10:42:12;1.92;;;1.73;;
21848;SDS011;11089;49.852;19.700;2024-03-25T10:45:14;2.35;;;2.00;;
21848;SDS011;11089;49.852;19.700;2024-03-25T10:48:26;3.25;;;2.10;;
21848;SDS011;11089;49.852;19.700;2024-03-25T10:51:29;2.35;;;1.73;;
21848;SDS011;11089;49.852;19.700;2024-03-25T10:54:31;2.72;;;1.67;;
21848;SDS011;11089;49.852;19.700;2024-03-25T10:57:33;8.65;;;3.40;;
21848;SDS011;11089;49.852;19.700;2024-03-25T11:00:35;3.30;;;2.08;;
21848;SDS011;11089;49.852;19.700;2024-03-25T11:03:37;3.38;;;1.50;;
21848;SDS011;11089;49.852;19.700;2024-03-25T11:06:38;2.10;;;1.90;;
21848;SDS011;11089;49.852;19.700;2024-03-25T11:09:39;2.25;;;1.85;;
21848;SDS011;11089;49.852;19.700;2024-03-25T11:12:41;3.38;;;1.88;;
21848;SDS011;11089;49.852;19.700;2024-03-25T11:15:43;2.30;;;1.50;;
21848;SDS011;11089;49.852;19.700;2024-03-25T11:18:50;3.38;;;1.90;;
21848;SDS011;11089;49.852;19.700;2024-03-25T11:21:51;1.60;;;1.40;;
21848;SDS011;11089;49.852;19.700;2024-03-25T11:24:54;3.17;;;2.08;;
21848;SDS011;11089;49.852;19.700;2024-03-25T11:27:55;2.22;;;1.77;;
21848;SDS011;11089;49.852;19.700;2024-03-25T11:30:56;4.10;;;2.88;;
21848;SDS011;11089;49.852;19.700;2024-03-25T11:33:58;10.32;;;5.15;;
21848;SDS011;11089;49.852;19.700;2024-03-25T11:37:04;8.65;;;3.60;;
21848;SDS011;11089;49.852;19.700;2024-03-25T11:40:06;5.75;;;3.45;;
21848;SDS011;11089;49.852;19.700;2024-03-25T11:43:09;13.70;;;5.45;;
21848;SDS011;11089;49.852;19.700;2024-03-25T11:46:18;6.25;;;3.83;;
21848;SDS011;11089;49.852;19.700;2024-03-25T11:49:20;4.78;;;3.00;;
21848;SDS011;11089;49.852;19.700;2024-03-25T11:52:21;7.25;;;3.58;;
21848;SDS011;11089;49.852;19.700;2024-03-25T11:55:22;38.03;;;15.27;;
21848;SDS011;11089;49.852;19.700;2024-03-25T11:58:23;24.35;;;11.32;;
21848;SDS011;11089;49.852;19.700;2024-03-25T12:01:24;7.43;;;4.55;;
21848;SDS011;11089;49.852;19.700;2024-03-25T12:04:26;5.03;;;3.25;;
21848;SDS011;11089;49.852;19.700;2024-03-25T12:07:27;10.50;;;5.90;;
21848;SDS011;11089;49.852;19.700;2024-03-25T12:10:28;6.38;;;3.20;;
21848;SDS011;11089;49.852;19.700;2024-03-25T12:13:43;3.92;;;2.70;;
21848;SDS011;11089;49.852;19.700;2024-03-25T12:16:44;3.75;;;2.42;;
21848;SDS011;11089;49.852;19.700;2024-03-25T12:20:06;3.53;;;2.22;;
21848;SDS011;11089;49.852;19.700;2024-03-25T12:23:13;4.47;;;2.70;;
21848;SDS011;11089;49.852;19.700;2024-03-25T12:26:14;1.98;;;1.75;;
21848;SDS011;11089;49.852;19.700;2024-03-25T12:29:15;4.10;;;2.83;;
21848;SDS011;11089;49.852;19.700;2024-03-25T12:32:16;9.07;;;2.80;;
21848;SDS011;11089;49.852;19.700;2024-03-25T12:35:17;3.33;;;1.83;;
21848;SDS011;11089;49.852;19.700;2024-03-25T12:38:28;4.10;;;1.80;;
21848;SDS011;11089;49.852;19.700;2024-03-25T12:41:34;2.75;;;1.83;;
21848;SDS011;11089;49.852;19.700;2024-03-25T12:44:36;3.08;;;1.60;;
21848;SDS011;11089;49.852;19.700;2024-03-25T12:47:38;1.73;;;1.27;;
21848;SDS011;11089;49.852;19.700;2024-03-25T12:50:39;2.30;;;1.60;;
21848;SDS011;11089;49.852;19.700;2024-03-25T12:53:40;4.72;;;2.40;;
21848;SDS011;11089;49.852;19.700;2024-03-25T12:56:41;5.85;;;3.20;;
21848;SDS011;11089;49.852;19.700;2024-03-25T12:59:43;6.22;;;3.25;;
21848;SDS011;11089;49.852;19.700;2024-03-25T13:02:44;7.57;;;3.67;;
21848;SDS011;11089;49.852;19.700;2024-03-25T13:05:45;12.38;;;6.05;;
21848;SDS011;11089;49.852;19.700;2024-03-25T13:08:46;6.68;;;3.63;;
21848;SDS011;11089;49.852;19.700;2024-03-25T13:11:47;13.60;;;6.35;;
21848;SDS011;11089;49.852;19.700;2024-03-25T13:14:48;8.55;;;4.05;;
21848;SDS011;11089;49.852;19.700;2024-03-25T13:17:49;29.23;;;11.43;;
21848;SDS011;11089;49.852;19.700;2024-03-25T13:20:50;6.85;;;3.88;;
21848;SDS011;11089;49.852;19.700;2024-03-25T13:23:52;4.57;;;2.85;;
21848;SDS011;11089;49.852;19.700;2024-03-25T13:26:53;4.60;;;3.13;;
21848;SDS011;11089;49.852;19.700;2024-03-25T13:29:54;4.30;;;2.15;;
21848;SDS011;11089;49.852;19.700;2024-03-25T13:32:55;3.70;;;2.35;;
21848;SDS011;11089;49.852;19.700;2024-03-25T13:35:55;5.65;;;2.20;;
21848;SDS011;11089;49.852;19.700;2024-03-25T13:38:56;2.97;;;2.17;;
21848;SDS011;11089;49.852;19.700;2024-03-25T13:41:57;3.67;;;2.30;;
21848;SDS011;11089;49.852;19.700;2024-03-25T13:44:58;39.55;;;11.05;;
21848;SDS011;11089;49.852;19.700;2024-03-25T13:47:59;7.60;;;2.67;;
21848;SDS011;11089;49.852;19.700;2024-03-25T13:51:00;4.10;;;2.40;;
21848;SDS011;11089;49.852;19.700;2024-03-25T13:54:01;4.05;;;2.45;;
21848;SDS011;11089;49.852;19.700;2024-03-25T13:57:03;6.55;;;3.30;;
21848;SDS011;11089;49.852;19.700;2024-03-25T14:00:04;6.82;;;4.00;;
21848;SDS011;11089;49.852;19.700;2024-03-25T14:03:08;5.32;;;2.72;;
21848;SDS011;11089;49.852;19.700;2024-03-25T14:06:09;6.75;;;3.30;;
21848;SDS011;11089;49.852;19.700;2024-03-25T14:09:10;8.05;;;4.05;;
21848;SDS011;11089;49.852;19.700;2024-03-25T14:12:25;10.40;;;5.28;;
21848;SDS011;11089;49.852;19.700;2024-03-25T14:15:26;12.75;;;6.35;;
21848;SDS011;11089;49.852;19.700;2024-03-25T14:18:27;9.88;;;4.90;;
21848;SDS011;11089;49.852;19.700;2024-03-25T14:21:31;9.95;;;4.35;;
21848;SDS011;11089;49.852;19.700;2024-03-25T14:24:32;4.70;;;2.83;;
21848;SDS011;11089;49.852;19.700;2024-03-25T14:27:33;4.25;;;2.50;;
21848;SDS011;11089;49.852;19.700;2024-03-25T14:30:34;5.63;;;3.30;;
21848;SDS011;11089;49.852;19.700;2024-03-25T14:33:35;7.00;;;3.88;;
21848;SDS011;11089;49.852;19.700;2024-03-25T14:36:36;4.43;;;2.67;;
21848;SDS011;11089;49.852;19.700;2024-03-25T14:39:37;3.80;;;2.20;;
21848;SDS011;11089;49.852;19.700;2024-03-25T14:42:38;4.78;;;3.00;;
21848;SDS011;11089;49.852;19.700;2024-03-25T14:45:39;3.03;;;1.98;;
21848;SDS011;11089;49.852;19.700;2024-03-25T14:48:40;3.90;;;2.50;;
21848;SDS011;11089;49.852;19.700;2024-03-25T14:51:41;6.80;;;3.10;;
21848;SDS011;11089;49.852;19.700;2024-03-25T14:54:42;12.18;;;3.90;;
21848;SDS011;11089;49.852;19.700;2024-03-25T14:57:43;5.05;;;2.97;;
21848;SDS011;11089;49.852;19.700;2024-03-25T15:00:44;8.43;;;3.78;;
21848;SDS011;11089;49.852;19.700;2024-03-25T15:03:45;3.03;;;2.17;;
21848;SDS011;11089;49.852;19.700;2024-03-25T15:06:46;4.68;;;3.05;;
21848;SDS011;11089;49.852;19.700;2024-03-25T15:09:47;13.25;;;5.53;;
21848;SDS011;11089;49.852;19.700;2024-03-25T15:12:48;8.48;;;4.72;;
21848;SDS011;11089;49.852;19.700;2024-03-25T15:15:49;8.20;;;4.10;;
21848;SDS011;11089;49.852;19.700;2024-03-25T15:18:50;11.20;;;4.47;;
21848;SDS011;11089;49.852;19.700;2024-03-25T15:21:51;7.38;;;3.53;;
21848;SDS011;11089;49.852;19.700;2024-03-25T15:24:53;7.95;;;4.13;;
21848;SDS011;11089;49.852;19.700;2024-03-25T15:27:54;9.07;;;3.97;;
21848;SDS011;11089;49.852;19.700;2024-03-25T15:30:55;9.95;;;4.50;;
21848;SDS011;11089;49.852;19.700;2024-03-25T15:33:56;7.72;;;3.88;;
21848;SDS011;11089;49.852;19.700;2024-03-25T15:36:57;8.57;;;4.13;;
21848;SDS011;11089;49.852;19.700;2024-03-25T15:39:58;11.23;;;4.70;;
21848;SDS011;11089;49.852;19.700;2024-03-25T15:42:59;17.38;;;7.10;;
21848;SDS011;11089;49.852;19.700;2024-03-25T15:46:01;13.52;;;6.10;;
21848;SDS011;11089;49.852;19.700;2024-03-25T15:49:04;13.40;;;5.70;;
21848;SDS011;11089;49.852;19.700;2024-03-25T15:52:05;13.57;;;5.93;;
21848;SDS011;11089;49.852;19.700;2024-03-25T15:55:06;19.92;;;7.55;;
21848;SDS011;11089;49.852;19.700;2024-03-25T15:58:08;28.60;;;8.57;;
21848;SDS011;11089;49.852;19.700;2024-03-25T16:01:09;18.88;;;7.20;;
21848;SDS011;11089;49.852;19.700;2024-03-25T16:04:10;11.57;;;5.80;;
21848;SDS011;11089;49.852;19.700;2024-03-25T16:07:11;15.43;;;6.72;;
21848;SDS011;11089;49.852;19.700;2024-03-25T16:10:13;10.77;;;5.70;;
21848;SDS011;11089;49.852;19.700;2024-03-25T16:13:14;39.90;;;11.85;;
21848;SDS011;11089;49.852;19.700;2024-03-25T16:16:15;23.13;;;8.60;;
21848;SDS011;11089;49.852;19.700;2024-03-25T16:19:16;27.15;;;10.20;;
21848;SDS011;11089;49.852;19.700;2024-03-25T16:22:17;13.73;;;6.45;;
21848;SDS011;11089;49.852;19.700;2024-03-25T16:25:18;14.25;;;6.32;;
21848;SDS011;11089;49.852;19.700;2024-03-25T16:28:19;14.98;;;5.63;;
21848;SDS011;11089;49.852;19.700;2024-03-25T16:31:20;18.45;;;8.10;;
21848;SDS011;11089;49.852;19.700;2024-03-25T16:34:21;21.27;;;9.15;;
21848;SDS011;11089;49.852;19.700;2024-03-25T16:37:22;46.65;;;16.73;;
21848;SDS011;11089;49.852;19.700;2024-03-25T16:40:24;14.57;;;6.07;;
21848;SDS011;11089;49.852;19.700;2024-03-25T16:43:25;13.25;;;5.60;;
21848;SDS011;11089;49.852;19.700;2024-03-25T16:46:26;23.45;;;9.48;;
21848;SDS011;11089;49.852;19.700;2024-03-25T16:49:27;14.13;;;5.70;;
21848;SDS011;11089;49.852;19.700;2024-03-25T16:52:28;28.83;;;9.90;;
21848;SDS011;11089;49.852;19.700;2024-03-25T16:55:29;69.65;;;21.23;;
21848;SDS011;11089;49.852;19.700;2024-03-25T16:58:30;27.85;;;9.77;;
21848;SDS011;11089;49.852;19.700;2024-03-25T17:01:33;18.92;;;7.30;;
21848;SDS011;11089;49.852;19.700;2024-03-25T17:04:33;23.05;;;9.07;;
21848;SDS011;11089;49.852;19.700;2024-03-25T17:07:34;20.80;;;10.30;;
21848;SDS011;11089;49.852;19.700;2024-03-25T17:10:36;14.05;;;5.93;;
21848;SDS011;11089;49.852;19.700;2024-03-25T17:13:38;20.25;;;7.72;;
21848;SDS011;11089;49.852;19.700;2024-03-25T17:16:39;10.82;;;5.45;;
21848;SDS011;11089;49.852;19.700;2024-03-25T17:19:40;15.07;;;7.82;;
21848;SDS011;11089;49.852;19.700;2024-03-25T17:22:41;25.23;;;11.07;;
21848;SDS011;11089;49.852;19.700;2024-03-25T17:25:42;21.08;;;8.82;;
21848;SDS011;11089;49.852;19.700;2024-03-25T17:28:45;22.30;;;9.68;;
21848;SDS011;11089;49.852;19.700;2024-03-25T17:31:48;26.80;;;11.35;;
21848;SDS011;11089;49.852;19.700;2024-03-25T17:34:49;25.55;;;11.63;;
21848;SDS011;11089;49.852;19.700;2024-03-25T17:37:50;34.72;;;14.75;;
21848;SDS011;11089;49.852;19.700;2024-03-25T17:40:52;30.05;;;12.85;;
21848;SDS011;11089;49.852;19.700;2024-03-25T17:43:53;32.72;;;15.30;;
21848;SDS011;11089;49.852;19.700;2024-03-25T17:46:54;42.55;;;17.90;;
21848;SDS011;11089;49.852;19.700;2024-03-25T17:49:56;48.00;;;21.27;;
21848;SDS011;11089;49.852;19.700;2024-03-25T17:52:58;50.13;;;20.98;;
21848;SDS011;11089;49.852;19.700;2024-03-25T17:55:59;39.22;;;16.05;;